TimeADT,TemperatureF,Dew PointF,Humidity,Sea Level PressureIn,VisibilityMPH,Wind Direction,Wind SpeedMPH,Gust SpeedMPH,PrecipitationIn,Events,Conditions,WindDirDegrees,DateUTC
12:00 AM,57,54,84,29.84,,East,12.7,,,,,80,2012-10-30 03:00:00
12:00 AM,57.2,53.6,88,29.84,-9999.0,East,12.7,19.6,N/A,,Unknown,80,2012-10-30 03:00:00
1:00 AM,57.9,53.8,86,29.84,-9999.0,ENE,13.8,23.0,N/A,,Unknown,70,2012-10-30 04:00:00
2:00 AM,57.2,55.0,92,29.84,-9999.0,East,12.7,23.0,N/A,,Unknown,80,2012-10-30 05:00:00
3:00 AM,59,56,85,29.82,,East,13.8,,,,,80,2012-10-30 06:00:00
3:00 AM,58.6,55.8,90,29.82,-9999.0,East,13.8,23.0,N/A,,Unknown,80,2012-10-30 06:00:00
4:00 AM,59.4,55.9,88,29.81,-9999.0,East,13.8,24.2,N/A,,Unknown,80,2012-10-30 07:00:00
5:00 AM,59.2,56.8,92,29.79,-9999.0,East,13.8,26.5,N/A,,Unknown,80,2012-10-30 08:00:00
6:00 AM,60,57,87,29.79,,East,12.7,,,,,80,2012-10-30 09:00:00
6:00 AM,59.7,57.2,91,29.79,-9999.0,East,12.7,20.7,N/A,,Unknown,80,2012-10-30 09:00:00
7:00 AM,59.2,57.6,94,29.79,-9999.0,East,13.8,26.5,0.43,,Unknown,90,2012-10-30 10:00:00
9:00 AM,59,58,94,29.85,,East,13.8,,,,,100,2012-10-30 12:00:00
9:00 AM,59.2,57.7,95,29.85,-9999.0,East,13.8,21.9,0.07,,Unknown,100,2012-10-30 12:00:00
10:00 AM,59.2,57.7,95,29.86,-9999.0,ESE,12.7,23.0,0.03,,Unknown,110,2012-10-30 13:00:00
11:00 AM,60.1,58.1,93,29.88,-9999.0,East,12.7,23.0,N/A,,Unknown,100,2012-10-30 14:00:00
12:00 PM,61,58,88,29.88,,East,12.7,,,,,100,2012-10-30 15:00:00
12:00 PM,60.6,58.3,92,29.88,-9999.0,East,12.7,19.6,N/A,,Unknown,100,2012-10-30 15:00:00
1:00 PM,61.3,59.0,92,29.88,-9999.0,East,11.5,17.3,N/A,,Unknown,100,2012-10-30 16:00:00
2:00 PM,62.2,59.5,91,29.86,-9999.0,East,10.4,-,N/A,,Unknown,100,2012-10-30 17:00:00
3:00 PM,62,60,90,29.85,,East,11.5,,,,,100,2012-10-30 18:00:00
3:00 PM,61.5,59.9,94,29.85,-9999.0,East,11.5,19.6,N/A,,Unknown,100,2012-10-30 18:00:00
4:00 PM,61.5,59.5,93,29.84,-9999.0,East,11.5,20.7,N/A,,Unknown,100,2012-10-30 19:00:00
5:00 PM,61.9,59.9,93,29.84,-9999.0,East,9.2,17.3,N/A,,Unknown,90,2012-10-30 20:00:00
6:00 PM,61,60,94,29.83,,East,11.5,,,,,100,2012-10-30 21:00:00
6:00 PM,61.2,59.7,95,29.83,-9999.0,East,11.5,20.7,0.05,,Unknown,100,2012-10-30 21:00:00
7:00 PM,61.7,60.1,94,29.82,-9999.0,East,11.5,19.6,0.04,,Unknown,90,2012-10-30 22:00:00
8:00 PM,61.2,59.7,95,29.82,-9999.0,East,12.7,20.7,0.06,,Unknown,100,2012-10-30 23:00:00
9:00 PM,61,60,94,29.81,,ESE,10.4,,,,,110,2012-10-31 00:00:00
9:00 PM,61.2,59.7,95,29.81,-9999.0,ESE,10.4,19.6,0.23,,Unknown,110,2012-10-31 00:00:00
10:00 PM,60.6,59.0,94,29.83,-9999.0,ESE,12.7,20.7,0.24,,Unknown,110,2012-10-31 01:00:00
11:00 PM,61.2,59.7,95,29.81,-9999.0,East,11.5,19.6,N/A,,Unknown,100,2012-10-31 02:00:00